Time;durP1;ratioP1;P1;durP2;ratioP2;P2;SDS_P1;SDS_P2;PMS_P1;PMS_P2;Temp;Humidity;BMP_temperature;BMP_pressure;BME280_temperature;BME280_humidity;BME280_pressure;Samples;Min_cycle;Max_cycle;Signal;HPM_P1;HPM_P2
2023/02/18 10:12:10;;;;;;;10.50;10.10;;;16.30;99.90;;;;;;5148002;27;20348;-77
2023/02/18 10:14:37;;;;;;;10.50;10.10;;;17.40;99.90;;;;;;5126930;28;20449;-78
2023/02/18 10:17:05;;;;;;;10.90;10.40;;;17.40;99.90;;;;;;5127014;28;20932;-78
2023/02/18 10:19:35;;;;;;;9.87;9.40;;;17.40;99.90;;;;;;5127367;28;20793;-78
2023/02/18 10:22:04;;;;;;;9.80;9.30;;;16.70;99.90;;;;;;5126857;28;20449;-77
2023/02/18 10:24:33;;;;;;;10.00;9.37;;;16.50;99.90;;;;;;5126264;28;20468;-76
2023/02/18 10:27:03;;;;;;;9.33;9.03;;;16.50;99.90;;;;;;5126435;28;20494;-79
2023/02/18 10:29:31;;;;;;;8.50;8.20;;;16.60;99.90;;;;;;5126194;28;20485;-77
2023/02/18 10:32:04;;;;;;;9.63;9.30;;;16.80;99.90;;;;;;5125976;28;20459;-77
2023/02/18 10:34:41;;;;;;;10.27;9.40;;;16.90;99.90;;;;;;5126448;28;20867;-78
2023/02/18 10:37:21;;;;;;;9.83;9.43;;;16.90;99.90;;;;;;5126109;28;20440;-78
2023/02/18 10:40:03;;;;;;;9.07;8.67;;;17.20;99.90;;;;;;5127004;28;20441;-78
2023/02/18 10:42:42;;;;;;;9.33;9.00;;;17.40;99.90;;;;;;5126297;28;20441;-77
2023/02/18 10:45:17;;;;;;;9.73;9.33;;;17.50;99.90;;;;;;5125888;28;20457;-78
2023/02/18 10:47:55;;;;;;;11.30;10.90;;;17.60;99.90;;;;;;5125812;28;20445;-77
2023/02/18 10:50:30;;;;;;;9.20;8.90;;;17.40;99.50;;;;;;5126062;28;20481;-77
2023/02/18 10:53:02;;;;;;;8.70;8.30;;;17.40;99.90;;;;;;5125692;28;20480;-77
2023/02/18 10:55:38;;;;;;;9.83;9.33;;;17.20;99.90;;;;;;5125723;28;20447;-78
2023/02/18 10:58:25;;;;;;;10.10;9.70;;;17.50;99.80;;;;;;5125930;28;20547;-78
2023/02/18 11:00:52;;;;;;;8.13;7.83;;;17.50;99.30;;;;;;5125520;28;20452;-78
2023/02/18 11:03:20;;;;;;;9.80;9.40;;;17.30;99.70;;;;;;5125859;28;20449;-77
2023/02/18 11:05:50;;;;;;;9.40;9.10;;;17.20;99.70;;;;;;5126384;28;20540;-77
2023/02/18 11:08:20;;;;;;;9.43;9.13;;;17.40;99.60;;;;;;5126261;28;20464;-77
2023/02/18 11:10:49;;;;;;;10.23;9.83;;;17.70;99.00;;;;;;5124434;28;20489;-77
2023/02/18 11:13:25;;;;;;;9.20;8.90;;;17.80;98.70;;;;;;5111863;28;20446;-77
2023/02/18 11:15:58;;;;;;;10.83;10.33;;;18.10;98.20;;;;;;5111563;28;20449;-77
2023/02/18 11:18:38;;;;;;;10.10;9.60;;;18.20;97.40;;;;;;5111970;28;20975;-76
2023/02/18 11:21:10;;;;;;;9.90;9.60;;;17.50;98.00;;;;;;5111993;28;20554;-77
2023/02/18 11:23:48;;;;;;;10.40;10.00;;;17.30;98.70;;;;;;5111741;28;20454;-77
2023/02/18 11:26:17;;;;;;;9.13;8.83;;;17.00;99.30;;;;;;5112027;28;20560;-78
2023/02/18 11:28:47;;;;;;;9.40;9.10;;;17.20;99.50;;;;;;5111761;28;20445;-77
2023/02/18 11:31:21;;;;;;;11.00;10.50;;;17.20;99.20;;;;;;5111576;28;20489;-78
2023/02/18 11:33:50;;;;;;;10.93;10.53;;;17.00;99.30;;;;;;5112244;28;20940;-77
2023/02/18 11:36:23;;;;;;;9.80;9.30;;;17.10;98.80;;;;;;5111383;28;20483;-78
2023/02/18 11:38:53;;;;;;;9.37;9.07;;;17.10;99.00;;;;;;5111274;28;20450;-78
2023/02/18 11:41:22;;;;;;;9.40;9.10;;;17.00;99.10;;;;;;5111379;28;20514;-78
2023/02/18 11:43:53;;;;;;;9.47;9.17;;;16.80;99.40;;;;;;5111651;28;20468;-78
2023/02/18 11:46:21;;;;;;;10.30;9.90;;;17.10;99.10;;;;;;5111465;28;20450;-78
2023/02/18 11:48:49;;;;;;;9.40;9.10;;;17.00;98.80;;;;;;5111673;28;20968;-78
2023/02/18 11:51:19;;;;;;;9.40;9.10;;;17.10;98.70;;;;;;5111464;28;20481;-78
2023/02/18 11:54:01;;;;;;;9.30;9.00;;;17.20;98.40;;;;;;5111259;28;20878;-78
2023/02/18 11:56:30;;;;;;;8.93;8.63;;;17.10;97.80;;;;;;5111214;28;20449;-78
2023/02/18 11:59:00;;;;;;;9.80;9.50;;;17.20;97.80;;;;;;5111173;28;20450;-78
2023/02/18 12:01:39;;;;;;;10.10;9.70;;;17.30;97.90;;;;;;5110922;28;20441;-78
2023/02/18 12:04:12;;;;;;;10.40;10.00;;;17.30;97.30;;;;;;5110925;28;20449;-78
2023/02/18 12:06:46;;;;;;;9.03;8.73;;;17.00;97.70;;;;;;5103448;28;20485;-78
2023/02/18 12:09:30;;;;;;;9.57;9.27;;;17.00;97.90;;;;;;5090048;28;20439;-77
2023/02/18 12:12:00;;;;;;;9.63;9.23;;;17.20;97.60;;;;;;5087319;28;20497;-77
2023/02/18 12:14:29;;;;;;;10.20;9.90;;;17.40;97.30;;;;;;5090737;28;20959;-77
2023/02/18 12:17:25;;;;;;;10.33;10.03;;;17.50;97.00;;;;;;5090609;28;20454;-77
2023/02/18 12:20:02;;;;;;;10.17;9.60;;;17.30;97.10;;;;;;5090076;28;20454;-76
2023/02/18 12:22:41;;;;;;;9.33;8.40;;;17.00;97.30;;;;;;5089902;28;20461;-77
2023/02/18 12:25:22;;;;;;;8.97;8.57;;;16.90;97.70;;;;;;5089795;28;20446;-78
2023/02/18 12:28:00;;;;;;;8.70;8.40;;;17.10;97.50;;;;;;5090122;28;20864;-77
2023/02/18 12:30:43;;;;;;;8.90;8.50;;;17.30;97.10;;;;;;5089401;28;20486;-79
2023/02/18 12:33:21;;;;;;;10.63;10.23;;;17.50;96.60;;;;;;5090180;28;20481;-77
2023/02/18 12:36:00;;;;;;;9.10;8.70;;;17.50;96.40;;;;;;5090373;28;20508;-77
2023/02/18 12:39:01;;;;;;;10.17;9.77;;;17.50;96.30;;;;;;5090067;28;20458;-77
2023/02/18 12:41:39;;;;;;;9.37;8.97;;;17.20;96.70;;;;;;5081479;28;20465;-77
2023/02/18 12:44:22;;;;;;;9.50;9.20;;;17.10;96.70;;;;;;5089974;28;20542;-77
2023/02/18 12:47:05;;;;;;;10.33;9.73;;;17.10;96.60;;;;;;5089814;28;20971;-77
2023/02/18 12:49:47;;;;;;;8.53;8.23;;;17.20;96.40;;;;;;5089879;28;20942;-78
2023/02/18 12:52:27;;;;;;;8.77;8.47;;;17.10;96.20;;;;;;5089444;28;20481;-78
2023/02/18 12:55:23;;;;;;;9.03;8.73;;;17.10;96.30;;;;;;5089156;28;20450;-78
2023/02/18 12:57:59;;;;;;;9.57;9.27;;;17.10;96.40;;;;;;5089685;28;20461;-78
2023/02/18 13:01:05;;;;;;;9.57;8.97;;;16.90;96.10;;;;;;5089468;28;20789;-78
2023/02/18 13:04:06;;;;;;;9.23;8.83;;;16.90;96.00;;;;;;5088855;28;20458;-77
2023/02/18 13:06:55;;;;;;;11.43;11.03;;;16.90;95.80;;;;;;5081101;28;20470;-79
2023/02/18 13:09:32;;;;;;;10.23;9.63;;;16.90;95.90;;;;;;5088974;28;20509;-78
2023/02/18 13:12:07;;;;;;;10.00;9.50;;;16.80;96.00;;;;;;5088472;28;20490;-77
2023/02/18 13:14:39;;;;;;;10.77;10.30;;;16.80;95.80;;;;;;5089320;28;20462;-78
2023/02/18 13:17:10;;;;;;;10.47;9.97;;;16.80;96.30;;;;;;5089049;28;20459;-78
2023/02/18 13:19:44;;;;;;;10.70;10.30;;;17.00;96.10;;;;;;5088677;28;20788;-78
2023/02/18 13:22:14;;;;;;;10.00;9.60;;;16.90;95.90;;;;;;5088444;28;20450;-77
2023/02/18 13:24:44;;;;;;;9.67;9.27;;;16.80;95.90;;;;;;5088629;28;20842;-78
2023/02/18 13:27:18;;;;;;;9.87;9.37;;;16.70;96.10;;;;;;5088505;28;20699;-79
2023/02/18 13:29:49;;;;;;;11.20;10.70;;;16.70;96.20;;;;;;5089084;28;20504;-79
2023/02/18 13:32:25;;;;;;;9.63;9.10;;;16.60;96.30;;;;;;5088774;28;20844;-79
2023/02/18 13:34:58;;;;;;;11.10;10.70;;;16.60;96.50;;;;;;5088224;28;20462;-78
2023/02/18 13:37:33;;;;;;;10.30;9.80;;;16.60;96.30;;;;;;5088034;28;21154;-78
2023/02/18 13:40:01;;;;;;;13.53;12.63;;;16.50;96.20;;;;;;5088208;28;20520;-78
2023/02/18 13:42:37;;;;;;;11.47;11.03;;;16.30;96.30;;;;;;5088429;28;20503;-77
2023/02/18 13:45:26;;;;;;;10.37;9.83;;;16.30;96.60;;;;;;5088799;28;20975;-77
2023/02/18 13:47:54;;;;;;;9.67;9.27;;;16.40;96.70;;;;;;5088325;28;20450;-78
2023/02/18 13:50:51;;;;;;;10.60;10.20;;;16.40;96.50;;;;;;5088089;28;21038;-78
2023/02/18 13:53:30;;;;;;;10.53;10.13;;;16.50;96.30;;;;;;5041900;28;20455;-78
2023/02/18 13:56:04;;;;;;;10.73;10.20;;;16.50;96.20;;;;;;5088304;28;20453;-76
2023/02/18 13:58:36;;;;;;;10.63;10.13;;;16.50;96.10;;;;;;5088566;28;20454;-77
2023/02/18 14:01:05;;;;;;;10.37;9.97;;;16.60;95.80;;;;;;5088639;28;20443;-76
2023/02/18 14:03:37;;;;;;;10.60;10.10;;;16.60;95.70;;;;;;5088448;28;20564;-76
2023/02/18 14:06:15;;;;;;;10.80;10.40;;;16.60;95.70;;;;;;5088573;28;20953;-79
2023/02/18 14:08:42;;;;;;;10.03;9.63;;;16.80;95.50;;;;;;5088075;28;20451;-78
2023/02/18 14:11:34;;;;;;;10.20;9.80;;;17.00;95.50;;;;;;5087904;28;20501;-79
2023/02/18 14:14:37;;;;;;;11.40;10.90;;;17.20;94.90;;;;;;5088429;28;20446;-77
2023/02/18 14:17:33;;;;;;;10.63;9.93;;;17.10;94.40;;;;;;5088115;28;20443;-78
2023/02/18 14:20:31;;;;;;;11.93;11.43;;;17.20;94.80;;;;;;5067378;28;20454;-78
2023/02/18 14:22:59;;;;;;;11.60;11.10;;;17.10;94.80;;;;;;5087928;28;20487;-77
2023/02/18 14:25:35;;;;;;;11.23;10.70;;;17.20;94.90;;;;;;5087922;28;20937;-78
2023/02/18 14:28:12;;;;;;;11.47;10.87;;;17.00;94.80;;;;;;5088220;28;20549;-78
2023/02/18 14:30:42;;;;;;;10.80;10.40;;;17.00;94.80;;;;;;5087755;28;21132;-77
2023/02/18 14:33:15;;;;;;;11.80;11.30;;;17.10;95.00;;;;;;5087528;28;20940;-77
2023/02/18 14:35:48;;;;;;;11.50;11.10;;;17.00;94.90;;;;;;5087571;28;21037;-78
2023/02/18 14:38:35;;;;;;;11.43;10.77;;;17.10;95.10;;;;;;5087640;28;20450;-78
2023/02/18 14:41:28;;;;;;;11.37;10.87;;;17.10;94.90;;;;;;5088062;28;20811;-79
2023/02/18 14:44:28;;;;;;;11.20;10.70;;;17.10;95.10;;;;;;5087499;28;20794;-77
2023/02/18 14:47:10;;;;;;;10.97;10.47;;;17.50;94.60;;;;;;5088855;28;20454;-78
2023/02/18 14:49:40;;;;;;;10.30;9.90;;;17.50;94.40;;;;;;5091694;28;20450;-78
2023/02/18 14:52:13;;;;;;;11.03;10.60;;;17.60;94.40;;;;;;5091380;28;20851;-78
2023/02/18 14:54:42;;;;;;;11.77;11.27;;;17.60;94.30;;;;;;5096118;28;20467;-78
2023/02/18 14:57:14;;;;;;;10.50;10.00;;;17.70;94.00;;;;;;5109190;28;20449;-78
2023/02/18 14:59:42;;;;;;;10.77;10.37;;;17.60;94.00;;;;;;5111703;28;20310;-78
2023/02/18 15:02:26;;;;;;;10.33;9.93;;;17.40;94.10;;;;;;5111746;28;21152;-78
2023/02/18 15:04:53;;;;;;;10.03;9.63;;;17.10;94.90;;;;;;5111700;28;20485;-79
2023/02/18 15:07:21;;;;;;;11.70;11.20;;;17.00;95.20;;;;;;5111455;28;20474;-78
2023/02/18 15:09:52;;;;;;;8.73;8.43;;;17.00;95.40;;;;;;5111546;28;20925;-78
2023/02/18 15:12:20;;;;;;;9.40;9.10;;;17.00;95.50;;;;;;5111524;28;20996;-77
2023/02/18 15:14:50;;;;;;;9.90;9.43;;;17.00;95.50;;;;;;5111992;28;20450;-77
2023/02/18 15:17:19;;;;;;;9.83;9.43;;;17.10;95.50;;;;;;5111775;28;20458;-76
2023/02/18 15:19:51;;;;;;;9.67;9.27;;;16.80;95.80;;;;;;5111371;28;20454;-77
2023/02/18 15:22:19;;;;;;;9.27;8.97;;;16.70;96.30;;;;;;5111684;28;20529;-77
2023/02/18 15:24:46;;;;;;;9.43;9.13;;;16.70;96.00;;;;;;5111698;28;20450;-77
2023/02/18 15:27:16;;;;;;;10.37;9.87;;;16.70;96.10;;;;;;5111469;28;20451;-76
2023/02/18 15:29:43;;;;;;;8.80;8.40;;;16.50;96.40;;;;;;5111394;28;20986;-76
2023/02/18 15:32:19;;;;;;;8.20;7.80;;;16.60;96.80;;;;;;5111139;28;20492;-77
2023/02/18 15:34:50;;;;;;;9.60;9.20;;;16.40;97.00;;;;;;5111331;28;20481;-76
2023/02/18 15:37:16;;;;;;;9.70;9.20;;;16.30;97.30;;;;;;5111141;28;20453;-76
2023/02/18 15:39:43;;;;;;;9.67;9.27;;;16.20;97.60;;;;;;5111256;28;20461;-76
2023/02/18 15:42:25;;;;;;;9.83;9.43;;;16.10;97.90;;;;;;5111669;28;21215;-77
2023/02/18 15:44:55;;;;;;;9.20;8.80;;;16.00;98.10;;;;;;5111855;28;20449;-78
2023/02/18 15:47:22;;;;;;;9.77;9.27;;;16.00;98.20;;;;;;5111760;28;20795;-76
2023/02/18 15:49:53;;;;;;;11.23;10.83;;;16.00;98.60;;;;;;5111909;28;20480;-76
2023/02/18 15:52:24;;;;;;;11.13;10.60;;;16.00;98.60;;;;;;5111807;28;20904;-77
2023/02/18 15:54:51;;;;;;;10.93;10.53;;;15.90;98.80;;;;;;5111785;28;20490;-76
2023/02/18 15:57:24;;;;;;;10.10;9.70;;;15.90;98.90;;;;;;5111283;28;20457;-77
2023/02/18 15:59:56;;;;;;;10.73;10.30;;;15.80;99.10;;;;;;5111086;28;20458;-76
2023/02/18 16:02:24;;;;;;;11.27;10.87;;;15.80;99.40;;;;;;5110904;28;20453;-76
2023/02/18 16:04:55;;;;;;;10.17;9.67;;;15.70;99.50;;;;;;5110947;28;20449;-78
2023/02/18 16:07:25;;;;;;;9.43;8.97;;;15.80;99.60;;;;;;5110594;28;21503;-76
2023/02/18 16:10:08;;;;;;;11.07;10.57;;;15.70;99.90;;;;;;5110154;28;20491;-75
2023/02/18 16:12:39;;;;;;;10.70;10.20;;;15.60;99.90;;;;;;5110225;28;20603;-78
2023/02/18 16:15:07;;;;;;;10.27;9.87;;;15.60;99.90;;;;;;5110151;28;20814;-77
2023/02/18 16:17:34;;;;;;;10.43;9.93;;;15.40;99.90;;;;;;5110461;28;20462;-78
2023/02/18 16:20:13;;;;;;;9.30;9.00;;;15.30;99.90;;;;;;5108639;28;20449;-76
2023/02/18 16:22:44;;;;;;;10.90;10.47;;;15.30;99.90;;;;;;5110887;28;20975;-77
2023/02/18 16:25:16;;;;;;;10.13;9.73;;;15.30;99.90;;;;;;5110357;28;21122;-77
2023/02/18 16:27:50;;;;;;;10.03;9.63;;;15.30;99.90;;;;;;5110463;28;20959;-78
2023/02/18 16:30:19;;;;;;;10.40;10.00;;;15.30;99.90;;;;;;5111080;28;20807;-78
2023/02/18 16:32:46;;;;;;;10.63;10.23;;;15.20;99.90;;;;;;5110569;28;20490;-77
2023/02/18 16:35:13;;;;;;;10.00;9.60;;;15.20;99.90;;;;;;5110452;28;20446;-77
2023/02/18 16:37:41;;;;;;;10.00;9.50;;;15.20;99.90;;;;;;5110565;28;20438;-77
2023/02/18 16:40:27;;;;;;;10.10;9.60;;;15.10;99.90;;;;;;5110366;28;20450;-78
2023/02/18 16:42:57;;;;;;;11.30;10.80;;;15.10;99.90;;;;;;5110094;28;20433;-77
2023/02/18 16:45:32;;;;;;;10.17;9.80;;;15.10;99.90;;;;;;5109934;28;20449;-77
2023/02/18 16:47:59;;;;;;;10.00;9.50;;;15.00;99.90;;;;;;5110183;28;20440;-77
2023/02/18 16:50:29;;;;;;;10.23;9.83;;;15.00;99.90;;;;;;5109872;28;20449;-77
2023/02/18 16:52:56;;;;;;;9.63;9.13;;;14.90;99.90;;;;;;5109754;28;20558;-77
2023/02/18 16:55:26;;;;;;;9.93;9.53;;;14.90;99.90;;;;;;5109977;28;20446;-78
2023/02/18 16:57:52;;;;;;;9.00;8.60;;;14.90;99.90;;;;;;5109481;28;20552;-77
2023/02/18 17:00:22;;;;;;;10.17;9.70;;;14.90;99.90;;;;;;5109718;28;20865;-78
2023/02/18 17:02:50;;;;;;;10.40;10.00;;;14.90;99.90;;;;;;5110073;28;20795;-77
2023/02/18 17:05:18;;;;;;;9.13;8.80;;;14.90;99.90;;;;;;5109816;28;20445;-77
2023/02/18 17:07:46;;;;;;;8.97;8.67;;;14.90;99.90;;;;;;5109117;28;20473;-77
2023/02/18 17:10:13;;;;;;;9.77;9.37;;;14.90;99.90;;;;;;5109036;28;20466;-77
2023/02/18 17:12:42;;;;;;;10.40;10.00;;;15.00;99.90;;;;;;5109162;28;20922;-77
2023/02/18 17:15:25;;;;;;;9.90;9.50;;;15.00;99.90;;;;;;5109256;28;20449;-77
2023/02/18 17:17:53;;;;;;;9.57;9.27;;;15.00;99.90;;;;;;5109021;28;20519;-76
2023/02/18 17:20:20;;;;;;;9.07;8.67;;;14.90;99.90;;;;;;5109227;28;20456;-77
2023/02/18 17:22:47;;;;;;;9.70;9.30;;;14.90;99.90;;;;;;5109175;28;20464;-76
2023/02/18 17:25:18;;;;;;;9.97;9.30;;;14.90;99.90;;;;;;5109175;28;20446;-76
2023/02/18 17:27:45;;;;;;;10.10;9.70;;;14.90;99.90;;;;;;5109039;28;20449;-75
2023/02/18 17:30:12;;;;;;;10.70;10.20;;;14.90;99.90;;;;;;5108809;28;20468;-76
2023/02/18 17:32:41;;;;;;;9.70;9.20;;;14.90;99.90;;;;;;5109007;28;20485;-76
2023/02/18 17:35:09;;;;;;;9.67;9.27;;;14.80;99.90;;;;;;5109106;28;20839;-77
2023/02/18 17:37:36;;;;;;;11.10;10.60;;;14.80;99.90;;;;;;5108701;28;20461;-77
2023/02/18 17:40:03;;;;;;;9.50;9.10;;;14.80;99.90;;;;;;5109120;28;20452;-77
2023/02/18 17:42:34;;;;;;;9.30;8.80;;;14.80;99.90;;;;;;5108675;28;20452;-77
2023/02/18 17:45:01;;;;;;;10.40;10.00;;;14.80;99.90;;;;;;5108826;28;20457;-78
2023/02/18 17:47:28;;;;;;;11.60;11.00;;;14.80;99.90;;;;;;5108597;28;20460;-78
2023/02/18 17:49:56;;;;;;;11.33;10.83;;;14.80;99.90;;;;;;5108561;28;20446;-77
2023/02/18 17:52:30;;;;;;;8.63;8.23;;;14.70;99.90;;;;;;5107970;28;20489;-78
2023/02/18 17:54:57;;;;;;;9.67;9.00;;;14.70;99.90;;;;;;5108286;28;20467;-78
2023/02/18 17:57:24;;;;;;;9.63;9.20;;;14.60;99.90;;;;;;5108060;28;20453;-78
